Time;durP1;ratioP1;P1;durP2;ratioP2;P2;SDS_P1;SDS_P2;PMS_P1;PMS_P2;Temp;Humidity;BMP_temperature;BMP_pressure;BME280_temperature;BME280_humidity;BME280_pressure;Samples;Min_cycle;Max_cycle;Signal;HPM_P1;HPM_P2
2023/01/16 00:01:39;;;;;;;3.58;3.13;;;;;;;2.41;100.00;99176.91;5035347;28;20047;-74
2023/01/16 00:04:04;;;;;;;4.68;3.35;;;;;;;2.42;100.00;99163.09;5052680;28;20541;-74
2023/01/16 00:06:29;;;;;;;6.10;3.10;;;;;;;2.45;100.00;99160.53;5049955;28;20025;-74
2023/01/16 00:08:55;;;;;;;8.23;3.35;;;;;;;2.41;100.00;99148.34;5053154;28;20112;-73
2023/01/16 00:11:20;;;;;;;7.45;3.00;;;;;;;2.41;100.00;99148.34;5050659;28;20380;-74
2023/01/16 00:13:45;;;;;;;5.07;2.70;;;;;;;2.44;100.00;99145.81;5054835;28;20389;-74
2023/01/16 00:16:11;;;;;;;3.40;2.97;;;;;;;2.47;100.00;99143.25;5054586;28;20020;-73
2023/01/16 00:18:36;;;;;;;6.78;2.70;;;;;;;2.47;100.00;99132.88;5060351;28;20031;-73
2023/01/16 00:21:02;;;;;;;7.05;2.40;;;;;;;2.44;100.00;99122.44;5054868;28;20025;-72
2023/01/16 00:23:27;;;;;;;3.95;2.60;;;;;;;2.41;100.00;99128.44;5049266;28;20032;-72
2023/01/16 00:25:52;;;;;;;4.03;2.60;;;;;;;2.40;100.00;99134.50;5055507;28;20029;-74
2023/01/16 00:28:18;;;;;;;4.55;2.15;;;;;;;2.40;100.00;99124.13;5052509;28;20491;-72
2023/01/16 00:30:44;;;;;;;7.70;2.78;;;;;;;2.40;100.00;99116.34;5037427;28;20052;-72
2023/01/16 00:33:09;;;;;;;5.80;2.47;;;;;;;2.41;100.00;99106.81;5046664;28;20094;-73
2023/01/16 00:35:35;;;;;;;7.75;3.00;;;;;;;2.41;100.00;99114.59;5046618;28;20485;-74
2023/01/16 00:38:00;;;;;;;6.35;2.45;;;;;;;2.44;100.00;99106.88;5048701;28;20024;-74
2023/01/16 00:40:26;;;;;;;4.18;2.38;;;;;;;2.47;100.00;99096.53;5053597;28;20020;-74
2023/01/16 00:42:51;;;;;;;3.75;2.03;;;;;;;2.53;100.00;99083.69;5051102;28;20082;-73
2023/01/16 00:45:17;;;;;;;4.30;2.17;;;;;;;2.51;100.00;99088.00;5049760;28;20049;-72
2023/01/16 00:47:42;;;;;;;7.22;2.42;;;;;;;2.48;100.00;99087.91;5047087;28;20021;-73
2023/01/16 00:50:08;;;;;;;6.40;2.92;;;;;;;2.48;100.00;99074.94;5050221;28;20120;-74
2023/01/16 00:52:33;;;;;;;6.70;2.15;;;;;;;2.45;100.00;99083.53;5050728;28;20064;-73
2023/01/16 00:54:58;;;;;;;5.38;2.42;;;;;;;2.45;100.00;99082.66;5044750;28;20025;-74
2023/01/16 00:57:24;;;;;;;6.45;2.47;;;;;;;2.42;100.00;99062.72;5051431;28;20031;-73
2023/01/16 00:59:49;;;;;;;6.35;2.53;;;;;;;2.42;100.00;99062.72;5053475;28;20107;-74
2023/01/16 01:02:15;;;;;;;6.28;2.72;;;;;;;2.39;100.00;99051.38;5050997;28;20045;-73
2023/01/16 01:04:40;;;;;;;6.55;2.75;;;;;;;2.36;100.00;99040.09;5049058;28;20076;-73
2023/01/16 01:07:05;;;;;;;6.68;2.67;;;;;;;2.32;100.00;99033.09;5053711;28;20380;-74
2023/01/16 01:09:31;;;;;;;7.03;2.67;;;;;;;2.32;100.00;99019.22;5059239;28;20078;-73
2023/01/16 01:11:57;;;;;;;7.00;2.85;;;;;;;2.36;100.00;99024.53;5035221;28;20033;-74
2023/01/16 01:14:23;;;;;;;10.65;3.35;;;;;;;2.32;100.00;99014.94;5033947;28;20040;-73
2023/01/16 01:16:48;;;;;;;19.75;2.83;;;;;;;2.30;100.00;99024.38;5042670;28;20021;-74
2023/01/16 01:19:14;;;;;;;6.68;2.95;;;;;;;2.31;100.00;99010.56;5050415;28;20032;-73
2023/01/16 01:21:39;;;;;;;7.07;3.35;;;;;;;2.32;100.00;99009.75;5052705;28;20111;-73
2023/01/16 01:24:05;;;;;;;16.92;5.40;;;;;;;2.39;100.00;99005.53;5047070;28;20104;-73
2023/01/16 01:26:30;;;;;;;6.90;3.78;;;;;;;2.41;100.00;99005.56;5047013;28;20064;-72
2023/01/16 01:28:55;;;;;;;10.15;4.47;;;;;;;2.47;100.00;99003.97;5057676;28;20414;-73
2023/01/16 01:31:21;;;;;;;10.88;4.85;;;;;;;2.51;100.00;98989.34;5035294;28;20028;-73
2023/01/16 01:33:46;;;;;;;11.40;5.15;;;;;;;2.52;100.00;98998.84;5063213;28;20025;-73
2023/01/16 01:36:11;;;;;;;15.63;5.85;;;;;;;2.53;100.00;98987.63;5048417;28;20013;-73
2023/01/16 01:38:37;;;;;;;12.63;6.47;;;;;;;2.51;100.00;98979.81;5059667;28;20098;-73
2023/01/16 01:41:02;;;;;;;15.20;5.60;;;;;;;2.51;100.00;98973.75;5058570;28;20032;-73
2023/01/16 01:43:39;;;;;;;13.95;5.60;;;;;;;2.50;100.00;98972.88;5054015;28;20017;-73
2023/01/16 01:46:05;;;;;;;12.93;5.65;;;;;;;2.51;100.00;98964.25;5070076;28;20139;-74
2023/01/16 01:48:40;;;;;;;17.08;5.72;;;;;;;2.53;100.00;98956.47;5063993;28;20123;-73
2023/01/16 01:51:10;;;;;;;14.82;6.20;;;;;;;2.56;100.00;98946.16;5052931;28;20449;-74
2023/01/16 01:54:01;;;;;;;12.70;5.55;;;;;;;2.58;100.00;98946.16;5073195;28;20021;-74
2023/01/16 01:56:39;;;;;;;16.55;6.60;;;;;;;2.59;100.00;98935.84;5030241;28;20043;-73
2023/01/16 01:59:14;;;;;;;17.25;6.50;;;;;;;2.65;100.00;98935.91;5043702;28;20028;-74
2023/01/16 02:01:39;;;;;;;15.57;5.55;;;;;;;2.69;100.00;98927.34;5060109;28;20500;-74
2023/01/16 02:04:12;;;;;;;17.23;6.50;;;;;;;2.70;100.00;98929.09;5052875;28;20025;-73
2023/01/16 02:06:45;;;;;;;10.88;5.78;;;;;;;2.78;100.00;98920.53;5051275;28;20167;-73
2023/01/16 02:09:11;;;;;;;11.85;6.32;;;;;;;2.82;100.00;98914.56;5055087;28;20551;-73
2023/01/16 02:11:48;;;;;;;17.63;6.57;;;;;;;2.78;100.00;98912.75;5045866;28;20033;-73
2023/01/16 02:14:15;;;;;;;16.52;5.97;;;;;;;2.80;100.00;98905.88;5059982;28;20033;-72
2023/01/16 02:19:37;;;;;;;13.93;6.47;;;;;;;2.79;100.00;98906.72;5044480;28;20075;-73
2023/01/16 02:22:20;;;;;;;17.85;6.65;;;;;;;2.81;100.00;98905.03;5040023;28;20028;-73
2023/01/16 02:24:52;;;;;;;12.13;5.00;;;;;;;2.80;100.00;98904.13;5061238;28;20029;-73
2023/01/16 02:27:22;;;;;;;9.13;5.80;;;;;;;2.77;100.00;98898.00;5056204;28;20037;-74
2023/01/16 02:30:16;;;;;;;14.02;4.82;;;;;;;2.75;100.00;98894.53;5063150;28;20187;-74
2023/01/16 02:33:02;;;;;;;15.97;4.83;;;;;;;2.73;100.00;98883.22;5038212;28;20120;-73
2023/01/16 02:36:03;;;;;;;9.43;3.85;;;;;;;2.69;100.00;98880.59;5051741;28;20075;-74
2023/01/16 02:39:02;;;;;;;6.25;3.67;;;;;;;2.67;100.00;98871.03;5033487;28;20616;-74
2023/01/16 02:41:42;;;;;;;10.80;3.47;;;;;;;2.69;100.00;98858.97;5042769;28;20431;-72
2023/01/16 02:44:25;;;;;;;8.82;3.40;;;;;;;2.65;100.00;98847.63;5058981;28;20023;-74
2023/01/16 02:47:12;;;;;;;12.67;3.43;;;;;;;2.64;100.00;98845.03;5058904;28;20135;-73
2023/01/16 02:49:48;;;;;;;11.10;3.40;;;;;;;2.61;100.00;98837.19;5046694;28;20400;-73
2023/01/16 02:52:38;;;;;;;14.90;3.72;;;;;;;2.58;100.00;98825.03;5053410;28;20033;-74
2023/01/16 02:55:10;;;;;;;5.47;2.63;;;;;;;2.56;100.00;98816.31;5038794;28;20031;-73
2023/01/16 02:57:41;;;;;;;7.43;4.10;;;;;;;2.55;100.00;98809.41;5055783;28;20025;-74
2023/01/16 03:00:09;;;;;;;9.98;4.15;;;;;;;2.51;100.00;98792.91;5046132;28;20029;-74
2023/01/16 03:02:34;;;;;;;8.90;3.90;;;;;;;2.48;100.00;98795.47;5052157;28;20056;-74
2023/01/16 03:05:00;;;;;;;10.57;2.88;;;;;;;2.44;100.00;98787.59;5053361;28;20061;-72
2023/01/16 03:07:49;;;;;;;5.97;2.60;;;;;;;2.40;100.00;98788.38;5061689;28;20024;-74
2023/01/16 03:10:20;;;;;;;10.45;2.08;;;;;;;2.37;100.00;98778.81;5055151;28;20115;-73
2023/01/16 03:13:04;;;;;;;6.88;2.60;;;;;;;2.35;100.00;98767.56;5048037;28;20033;-73
2023/01/16 03:15:36;;;;;;;9.68;2.38;;;;;;;2.38;100.00;98774.53;5043417;28;20037;-73
2023/01/16 03:18:17;;;;;;;5.97;2.05;;;;;;;2.35;100.00;98780.53;5058735;28;20056;-74
2023/01/16 03:20:56;;;;;;;10.52;2.80;;;;;;;2.32;100.00;98760.59;5064956;28;20047;-73
2023/01/16 03:23:28;;;;;;;7.82;2.75;;;;;;;2.31;100.00;98747.59;5058738;28;20380;-74
2023/01/16 03:26:04;;;;;;;8.65;2.88;;;;;;;2.32;100.00;98755.41;5044406;28;20039;-74
2023/01/16 03:28:40;;;;;;;6.68;2.70;;;;;;;2.35;100.00;98745.06;5057230;28;20070;-73
2023/01/16 03:31:25;;;;;;;7.22;3.00;;;;;;;2.33;100.00;98736.41;5052804;28;20033;-74
2023/01/16 03:34:08;;;;;;;6.45;3.47;;;;;;;2.34;100.00;98732.06;5038463;28;20022;-73
2023/01/16 03:36:38;;;;;;;8.00;3.20;;;;;;;2.35;100.00;98728.63;5033646;28;20103;-74
2023/01/16 03:39:07;;;;;;;8.32;2.92;;;;;;;2.35;100.00;98719.09;5055793;28;20040;-74
2023/01/16 03:41:36;;;;;;;7.85;3.00;;;;;;;2.32;100.00;98711.28;5047917;28;20025;-73
2023/01/16 03:44:08;;;;;;;4.25;3.03;;;;;;;2.33;100.00;98707.84;5040487;28;20109;-73
2023/01/16 03:46:41;;;;;;;10.48;3.75;;;;;;;2.32;100.00;98698.31;5060589;28;20392;-73
2023/01/16 03:49:13;;;;;;;6.13;3.83;;;;;;;2.29;100.00;98684.41;5050445;28;20025;-74
2023/01/16 03:51:47;;;;;;;11.55;3.03;;;;;;;2.30;100.00;98674.03;5049534;28;20330;-74
2023/01/16 03:54:42;;;;;;;6.30;3.15;;;;;;;2.27;100.00;98671.41;5060885;28;20522;-73
2023/01/16 03:57:13;;;;;;;8.63;3.40;;;;;;;2.26;100.00;98655.81;5061142;28;20063;-75
2023/01/16 03:59:43;;;;;;;9.48;3.15;;;;;;;2.26;100.00;98648.03;5047185;28;20086;-74
2023/01/16 04:02:17;;;;;;;8.80;3.50;;;;;;;2.28;100.00;98643.72;5050905;28;20045;-74
2023/01/16 04:04:55;;;;;;;10.38;3.55;;;;;;;2.29;100.00;98635.09;5038602;28;20393;-73
2023/01/16 04:07:37;;;;;;;8.90;3.15;;;;;;;2.31;100.00;98623.88;5051355;28;20024;-73
2023/01/16 04:10:10;;;;;;;8.90;2.70;;;;;;;2.32;100.00;98615.25;5047100;28;20033;-74
2023/01/16 04:12:42;;;;;;;7.95;3.03;;;;;;;2.34;100.00;98603.16;5050837;28;20079;-73
2023/01/16 04:15:08;;;;;;;14.55;2.85;;;;;;;2.34;100.00;98587.59;5043757;28;20079;-73
2023/01/16 04:17:36;;;;;;;9.90;3.80;;;;;;;2.31;100.00;98576.31;5051538;28;20029;-75
2023/01/16 04:20:03;;;;;;;5.10;3.63;;;;;;;2.29;100.00;98578.00;5051647;28;20036;-73
2023/01/16 04:22:29;;;;;;;8.77;3.13;;;;;;;2.27;100.00;98575.41;5050702;28;20480;-73
2023/01/16 04:25:00;;;;;;;11.23;3.15;;;;;;;2.26;100.00;98568.47;5056899;28;20036;-74
2023/01/16 04:27:26;;;;;;;9.05;2.22;;;;;;;2.24;100.00;98556.31;5052961;28;20453;-74
2023/01/16 04:29:51;;;;;;;6.47;2.00;;;;;;;2.23;100.00;98546.81;5057221;28;20107;-74
2023/01/16 04:32:17;;;;;;;6.93;1.80;;;;;;;2.21;100.00;98541.56;5048126;28;20059;-73
2023/01/16 04:34:42;;;;;;;8.07;1.98;;;;;;;2.20;100.00;98537.25;5050949;28;20535;-73
2023/01/16 04:37:11;;;;;;;4.45;1.40;;;;;;;2.19;100.00;98525.13;5045792;28;20388;-73
2023/01/16 04:39:36;;;;;;;8.50;1.70;;;;;;;2.19;100.00;98525.13;5039187;28;20100;-73
2023/01/16 04:42:02;;;;;;;7.35;1.58;;;;;;;2.19;100.00;98519.94;5050072;28;20457;-74
2023/01/16 04:44:27;;;;;;;10.38;1.77;;;;;;;2.19;100.00;98509.56;5051055;28;20032;-73
2023/01/16 04:46:53;;;;;;;7.50;1.80;;;;;;;2.21;100.00;98501.78;5052436;28;20078;-73
2023/01/16 04:49:19;;;;;;;2.78;1.40;;;;;;;2.19;100.00;98483.63;5051099;28;20124;-74
2023/01/16 04:51:45;;;;;;;10.38;1.20;;;;;;;2.19;100.00;98474.09;5051958;28;20116;-72
2023/01/16 04:54:14;;;;;;;6.03;1.67;;;;;;;2.19;100.00;98462.84;5046508;28;20079;-74
2023/01/16 04:56:41;;;;;;;6.45;1.45;;;;;;;2.20;100.00;98459.41;5040975;28;20040;-74
2023/01/16 04:59:07;;;;;;;4.88;1.23;;;;;;;2.21;100.00;98445.56;5051139;28;20389;-74
2023/01/16 05:01:34;;;;;;;14.50;1.67;;;;;;;2.21;100.00;98437.78;5052280;28;20424;-73
2023/01/16 05:04:11;;;;;;;10.80;1.58;;;;;;;2.24;100.00;98435.25;5044765;28;20039;-73
2023/01/16 05:06:36;;;;;;;5.22;1.80;;;;;;;2.27;100.00;98419.72;5044531;28;20083;-72
2023/01/16 05:09:04;;;;;;;3.50;1.50;;;;;;;2.29;100.00;98412.81;5064390;28;20016;-73
2023/01/16 05:11:29;;;;;;;5.15;1.35;;;;;;;2.28;100.00;98398.09;5046150;28;20033;-73
2023/01/16 05:13:55;;;;;;;5.15;1.83;;;;;;;2.31;100.00;98386.88;5050789;28;20029;-72
2023/01/16 05:16:20;;;;;;;5.97;1.60;;;;;;;2.30;100.00;98377.34;5040535;28;20021;-74
2023/01/16 05:18:45;;;;;;;7.35;1.70;;;;;;;2.30;100.00;98370.41;5050551;28;20043;-73
2023/01/16 05:21:11;;;;;;;9.20;1.33;;;;;;;2.30;100.00;98357.44;5050680;28;20063;-73
2023/01/16 05:23:37;;;;;;;4.90;1.55;;;;;;;2.31;100.00;98347.97;5051945;28;20112;-72
2023/01/16 05:26:04;;;;;;;4.40;1.60;;;;;;;2.32;100.00;98344.47;5049479;28;20025;-73
2023/01/16 05:28:30;;;;;;;5.63;1.83;;;;;;;2.34;100.00;98341.06;5051998;28;20520;-73
2023/01/16 05:30:56;;;;;;;9.25;1.67;;;;;;;2.33;100.00;98331.56;5048380;28;20025;-73
2023/01/16 05:33:21;;;;;;;2.78;1.33;;;;;;;2.33;100.00;98318.56;5051326;28;20025;-73
2023/01/16 05:35:47;;;;;;;10.60;1.80;;;;;;;2.31;100.00;98315.09;5046254;28;20029;-73
2023/01/16 05:38:13;;;;;;;6.78;2.50;;;;;;;2.36;100.00;98310.81;5050981;28;20025;-74
2023/01/16 05:40:39;;;;;;;11.20;1.60;;;;;;;2.35;100.00;98303.88;5048865;28;20413;-72
2023/01/16 05:43:04;;;;;;;8.55;1.63;;;;;;;2.40;100.00;98300.44;5058570;28;20040;-72
2023/01/16 05:45:30;;;;;;;7.43;1.65;;;;;;;2.43;100.00;98295.28;5057642;28;20033;-73
2023/01/16 05:47:55;;;;;;;4.75;1.70;;;;;;;2.41;100.00;98289.22;5051587;28;20033;-73
2023/01/16 05:50:20;;;;;;;4.75;1.58;;;;;;;2.43;100.00;98285.78;5042412;28;20544;-73
2023/01/16 05:52:46;;;;;;;6.22;1.70;;;;;;;2.43;100.00;98274.50;5045988;28;20025;-73
2023/01/16 05:55:11;;;;;;;5.75;1.50;;;;;;;2.47;100.00;98265.88;5042014;28;20443;-72
2023/01/16 05:57:37;;;;;;;8.70;1.60;;;;;;;2.46;100.00;98258.97;5041963;28;20037;-73
2023/01/16 06:00:04;;;;;;;9.15;2.28;;;;;;;2.47;100.00;98255.50;5047017;28;20379;-73
2023/01/16 06:02:31;;;;;;;5.10;1.50;;;;;;;2.49;100.00;98248.63;5049364;28;20047;-73
2023/01/16 06:04:57;;;;;;;6.85;1.77;;;;;;;2.48;100.00;98241.66;5054768;28;20102;-74
2023/01/16 06:07:22;;;;;;;4.63;1.58;;;;;;;2.49;100.00;98233.91;5069653;28;20456;-73
2023/01/16 06:09:48;;;;;;;3.53;1.55;;;;;;;2.51;100.00;98229.59;5050398;28;20032;-73
2023/01/16 06:12:17;;;;;;;11.10;1.50;;;;;;;2.55;100.00;98232.19;5046043;28;20040;-73
2023/01/16 06:14:43;;;;;;;5.53;1.60;;;;;;;2.54;100.00;98226.16;5061025;28;20103;-74
2023/01/16 06:17:09;;;;;;;7.65;1.60;;;;;;;2.55;100.00;98221.81;5053808;28;20154;-73
2023/01/16 06:19:34;;;;;;;4.00;1.20;;;;;;;2.55;100.00;98201.06;5063806;28;20036;-74
2023/01/16 06:22:00;;;;;;;10.27;1.77;;;;;;;2.55;100.00;98201.94;5050270;28;20033;-74
2023/01/16 06:24:25;;;;;;;6.25;1.65;;;;;;;2.54;100.00;98197.59;5058705;28;20028;-73
2023/01/16 06:26:50;;;;;;;12.45;2.30;;;;;;;2.56;100.00;98189.81;5059789;28;21894;-73
2023/01/16 06:29:16;;;;;;;8.95;1.77;;;;;;;2.56;100.00;98180.28;5057499;28;20031;-73
2023/01/16 06:31:41;;;;;;;6.63;1.73;;;;;;;2.55;100.00;98170.78;5061236;28;20028;-74
2023/01/16 06:34:06;;;;;;;10.23;1.98;;;;;;;2.57;100.00;98163.00;5061114;28;20029;-73
2023/01/16 06:36:32;;;;;;;7.88;2.08;;;;;;;2.57;100.00;98165.59;5064839;28;20420;-73
2023/01/16 06:38:57;;;;;;;5.22;1.70;;;;;;;2.58;100.00;98151.75;5051430;28;20029;-73
2023/01/16 06:41:23;;;;;;;8.20;2.35;;;;;;;2.57;100.00;98147.44;5059234;28;20056;-73
2023/01/16 06:43:48;;;;;;;7.88;2.03;;;;;;;2.57;100.00;98143.09;5058270;28;20052;-74
2023/01/16 06:46:13;;;;;;;9.65;2.20;;;;;;;2.59;100.00;98141.38;5050220;28;20025;-73
2023/01/16 06:48:41;;;;;;;11.02;2.30;;;;;;;2.58;100.00;98134.47;5052074;28;20120;-74
2023/01/16 06:51:06;;;;;;;6.05;1.58;;;;;;;2.59;100.00;98115.44;5052732;28;20025;-75
2023/01/16 06:53:32;;;;;;;10.50;1.70;;;;;;;2.59;100.00;98109.34;5054193;28;20031;-75
2023/01/16 06:55:57;;;;;;;11.52;2.08;;;;;;;2.59;100.00;98105.03;5052548;28;20078;-75
2023/01/16 06:58:22;;;;;;;11.77;1.73;;;;;;;2.58;100.00;98098.13;5053346;28;20116;-75
2023/01/16 07:00:51;;;;;;;11.70;2.92;;;;;;;2.58;100.00;98087.72;5049085;28;20025;-76
2023/01/16 07:03:17;;;;;;;13.13;1.80;;;;;;;2.58;100.00;98081.66;5068062;28;20134;-76
2023/01/16 07:05:45;;;;;;;5.80;1.70;;;;;;;2.59;100.00;98073.00;5052761;28;20029;-76
2023/01/16 07:08:10;;;;;;;10.55;2.08;;;;;;;2.58;100.00;98072.16;5048578;28;20071;-76
2023/01/16 07:10:36;;;;;;;5.50;1.55;;;;;;;2.60;100.00;98051.38;5054351;28;20024;-76
2023/01/16 07:13:01;;;;;;;4.35;1.58;;;;;;;2.60;100.00;98049.66;5055985;28;20029;-73
2023/01/16 07:23:47;;;;;;;7.90;1.30;;;;;;;2.58;100.00;98002.06;5047006;28;20040;-75
2023/01/16 07:26:15;;;;;;;7.88;1.73;;;;;;;2.56;100.00;97990.78;5053238;28;20046;-76
2023/01/16 07:28:40;;;;;;;13.35;1.80;;;;;;;2.57;100.00;97984.75;5047750;28;20108;-76
2023/01/16 07:31:07;;;;;;;6.85;1.65;;;;;;;2.57;100.00;97982.16;5058914;28;20436;-75
2023/01/16 07:33:33;;;;;;;5.65;1.60;;;;;;;2.58;100.00;97970.03;5053095;28;20094;-76
2023/01/16 07:35:59;;;;;;;7.22;1.60;;;;;;;2.55;100.00;97962.25;5054659;28;20061;-75
2023/01/16 07:38:24;;;;;;;7.18;2.03;;;;;;;2.55;100.00;97957.94;5051528;28;20032;-77
2023/01/16 07:40:49;;;;;;;7.90;1.98;;;;;;;2.54;100.00;97956.19;5053563;28;20039;-75
2023/01/16 07:43:14;;;;;;;8.32;1.52;;;;;;;2.54;100.00;97945.81;5052982;28;20162;-76
2023/01/16 07:45:40;;;;;;;8.38;3.33;;;;;;;2.55;100.00;97938.88;5052918;28;20078;-75
2023/01/16 07:48:05;;;;;;;6.05;1.83;;;;;;;2.56;100.00;97931.09;5058793;28;20116;-75
2023/01/16 07:50:31;;;;;;;8.48;2.15;;;;;;;2.55;100.00;97916.41;5073740;28;20028;-75
2023/01/16 07:52:56;;;;;;;11.23;2.63;;;;;;;2.55;100.00;97913.81;5072847;28;20031;-75
2023/01/16 07:55:23;;;;;;;10.68;2.88;;;;;;;2.56;100.00;97901.69;5053164;28;20047;-76
2023/01/16 07:57:48;;;;;;;6.57;1.52;;;;;;;2.56;100.00;97892.16;5054206;28;20028;-75
2023/01/16 08:00:14;;;;;;;7.72;1.90;;;;;;;2.56;100.00;97892.16;5054195;28;20448;-75
2023/01/16 08:02:40;;;;;;;7.43;2.20;;;;;;;2.58;100.00;97889.56;5052687;28;20045;-76
2023/01/16 08:05:06;;;;;;;5.20;1.90;;;;;;;2.58;100.00;97885.25;5051977;28;20043;-75
2023/01/16 08:07:31;;;;;;;6.60;2.33;;;;;;;2.58;100.00;97874.00;5053900;28;20108;-75
2023/01/16 08:09:57;;;;;;;6.25;1.80;;;;;;;2.57;100.00;97867.94;5066141;28;20115;-75
2023/01/16 08:12:22;;;;;;;6.18;2.50;;;;;;;2.58;100.00;97863.59;5061798;28;20107;-75
2023/01/16 08:14:48;;;;;;;6.38;2.00;;;;;;;2.59;100.00;97862.75;5053568;28;20526;-74
2023/01/16 08:17:13;;;;;;;7.82;2.40;;;;;;;2.60;100.00;97854.09;5052872;28;20036;-75
2023/01/16 08:19:38;;;;;;;12.43;2.40;;;;;;;2.60;100.00;97847.16;5053115;28;20115;-74
2023/01/16 08:22:04;;;;;;;4.57;1.83;;;;;;;2.57;100.00;97842.00;5052428;28;20021;-75
2023/01/16 08:24:29;;;;;;;5.47;2.38;;;;;;;2.60;100.00;97834.19;5051080;28;20025;-75
2023/01/16 08:26:55;;;;;;;4.57;1.73;;;;;;;2.61;100.00;97838.53;5053638;28;20020;-75
2023/01/16 08:29:22;;;;;;;4.38;1.70;;;;;;;2.60;100.00;97831.59;5053490;28;20097;-75
2023/01/16 08:31:47;;;;;;;5.55;1.90;;;;;;;2.61;100.00;97832.47;5050055;28;20032;-75
2023/01/16 08:34:13;;;;;;;6.50;1.95;;;;;;;2.62;100.00;97819.50;5046802;28;20469;-76
2023/01/16 08:36:38;;;;;;;8.85;2.30;;;;;;;2.64;100.00;97817.75;5055853;28;20029;-76
2023/01/16 08:39:04;;;;;;;4.50;1.67;;;;;;;2.67;100.00;97822.06;5051878;28;20358;-76
2023/01/16 08:52:34;;;;;;;6.70;1.70;;;;;;;2.68;100.00;97788.31;5032561;28;20036;-76
2023/01/16 08:55:00;;;;;;;4.82;1.98;;;;;;;2.67;100.00;97781.41;5048828;28;20021;-76
2023/01/16 08:57:29;;;;;;;6.55;2.42;;;;;;;2.68;100.00;97779.69;5050515;28;20120;-76
2023/01/16 08:59:56;;;;;;;4.78;1.92;;;;;;;2.68;100.00;97767.53;5047492;28;20492;-74
2023/01/16 09:02:22;;;;;;;3.70;1.75;;;;;;;2.72;100.00;97765.81;5051629;28;20067;-74
2023/01/16 09:04:49;;;;;;;7.43;1.95;;;;;;;2.72;100.00;97760.63;5048690;28;20088;-74
2023/01/16 09:07:15;;;;;;;6.07;2.05;;;;;;;2.70;100.00;97765.84;5049828;28;20064;-75
2023/01/16 09:09:41;;;;;;;4.90;2.80;;;;;;;2.68;100.00;97762.34;5048183;28;20032;-75
2023/01/16 09:14:55;;;;;;;9.55;2.40;;;;;;;2.74;100.00;97745.03;5072360;28;20495;-75
2023/01/16 09:17:21;;;;;;;4.75;2.38;;;;;;;2.76;100.00;97751.13;5054286;28;20048;-77
2023/01/16 09:19:46;;;;;;;3.90;1.98;;;;;;;2.76;100.00;97740.72;5049253;28;20028;-75
2023/01/16 09:22:12;;;;;;;7.05;2.10;;;;;;;2.76;100.00;97733.78;5051931;28;20496;-76
2023/01/16 09:24:38;;;;;;;3.00;2.00;;;;;;;2.78;100.00;97731.19;5050867;28;20508;-75
2023/01/16 09:27:04;;;;;;;6.43;2.38;;;;;;;2.79;100.00;97730.31;5052099;28;20496;-74
2023/01/16 09:29:29;;;;;;;4.75;1.92;;;;;;;2.80;100.00;97722.53;5052026;28;20021;-76
2023/01/16 09:31:55;;;;;;;5.20;1.75;;;;;;;2.79;100.00;97718.19;5056817;28;20055;-75
2023/01/16 09:34:20;;;;;;;8.65;1.80;;;;;;;2.80;100.00;97719.94;5064750;28;20020;-75
2023/01/16 09:36:45;;;;;;;4.45;2.47;;;;;;;2.82;100.00;97719.91;5072140;28;20032;-74
2023/01/16 09:39:11;;;;;;;5.03;1.80;;;;;;;2.83;100.00;97709.53;5053532;28;20476;-76
2023/01/16 09:44:48;;;;;;;9.38;2.20;;;;;;;2.84;100.00;97694.81;5052187;28;20040;-75
2023/01/16 09:47:14;;;;;;;9.05;2.17;;;;;;;2.88;100.00;97699.16;5051826;28;20028;-75
2023/01/16 09:49:50;;;;;;;5.28;2.30;;;;;;;2.85;100.00;97692.22;5051950;28;20031;-74
2023/01/16 09:58:35;;;;;;;4.80;2.25;;;;;;;2.91;100.00;97691.31;5060191;28;20039;-76
2023/01/16 10:01:01;;;;;;;6.90;2.35;;;;;;;2.93;100.00;97678.34;5054299;28;20111;-75
2023/01/16 10:03:27;;;;;;;4.18;2.20;;;;;;;2.92;100.00;97672.28;5071532;28;20044;-75
2023/01/16 10:05:58;;;;;;;4.13;2.30;;;;;;;2.92;100.00;97669.69;5058222;28;20124;-76
2023/01/16 10:08:30;;;;;;;5.85;2.30;;;;;;;2.92;100.00;97669.69;5055633;28;20064;-75
2023/01/16 10:11:15;;;;;;;2.55;1.98;;;;;;;2.91;100.00;97665.38;5067690;28;20055;-76
2023/01/16 10:13:53;;;;;;;5.72;2.28;;;;;;;2.92;100.00;97656.72;5051460;28;20033;-76
2023/01/16 10:16:28;;;;;;;5.70;2.75;;;;;;;2.92;100.00;97651.50;5054478;28;20090;-75
2023/01/16 10:19:20;;;;;;;6.28;2.03;;;;;;;2.92;100.00;97646.31;5053785;28;20394;-75
2023/01/16 10:22:04;;;;;;;3.47;2.17;;;;;;;2.94;100.00;97649.75;5053465;28;20021;-75
2023/01/16 10:24:55;;;;;;;5.15;2.45;;;;;;;2.93;100.00;97648.06;5055297;28;21291;-75
2023/01/16 10:27:54;;;;;;;5.90;2.53;;;;;;;2.96;100.00;97642.00;5055959;28;20094;-75
2023/01/16 10:30:44;;;;;;;5.00;2.28;;;;;;;2.97;100.00;97644.56;5057010;28;20033;-75
2023/01/16 10:33:18;;;;;;;4.38;2.08;;;;;;;2.95;100.00;97630.72;5052995;28;20367;-77
2023/01/16 10:35:48;;;;;;;6.97;2.70;;;;;;;2.93;100.00;97619.47;5054985;28;20477;-75
2023/01/16 10:38:40;;;;;;;5.05;2.20;;;;;;;2.94;100.00;97626.38;5071565;28;20037;-75
2023/01/16 10:49:25;;;;;;;4.57;2.35;;;;;;;2.97;100.00;97622.91;5041919;28;20038;-76
2023/01/16 10:49:29;;;;;;;5.68;2.50;;;;;;;2.99;100.00;97606.44;5072448;28;20089;-75
2023/01/16 10:51:58;;;;;;;9.10;2.33;;;;;;;3.01;100.00;97599.53;5070303;28;20415;-74
2023/01/16 10:54:24;;;;;;;5.15;2.38;;;;;;;3.01;100.00;97602.13;5051782;28;20037;-76
2023/01/16 10:56:49;;;;;;;8.60;2.38;;;;;;;3.01;100.00;97594.34;5068234;28;20377;-76
2023/01/16 10:59:15;;;;;;;4.38;2.65;;;;;;;3.04;100.00;97601.25;5072665;28;20024;-77
2023/01/16 11:01:42;;;;;;;3.80;2.15;;;;;;;3.06;100.00;97599.50;5067296;28;20033;-76
2023/01/16 11:04:11;;;;;;;4.63;2.35;;;;;;;3.08;100.00;97589.09;5064132;28;20203;-75
2023/01/16 11:06:40;;;;;;;4.22;2.65;;;;;;;3.10;100.00;97592.56;5074526;28;20103;-76
2023/01/16 11:09:16;;;;;;;7.25;2.85;;;;;;;3.11;100.00;97586.50;5072551;28;20029;-76
2023/01/16 11:20:11;;;;;;;5.32;2.63;;;;;;;3.19;100.00;97566.50;5061521;28;20390;-76
2023/01/16 11:22:39;;;;;;;4.00;2.13;;;;;;;3.21;100.00;97554.34;5062632;28;20396;-76
2023/01/16 11:25:05;;;;;;;5.00;2.17;;;;;;;3.23;100.00;97555.22;5053977;28;20400;-76
2023/01/16 11:27:35;;;;;;;3.67;2.38;;;;;;;3.28;100.00;97556.03;5071958;28;20028;-75
2023/01/16 11:30:06;;;;;;;3.90;2.40;;;;;;;3.31;100.00;97545.63;5061482;28;20439;-76
2023/01/16 11:32:37;;;;;;;5.18;2.47;;;;;;;3.36;100.00;97543.88;5069696;28;20028;-76
2023/01/16 11:35:12;;;;;;;7.90;2.85;;;;;;;3.41;100.00;97540.38;5070495;28;20028;-74
2023/01/16 11:37:39;;;;;;;8.07;2.25;;;;;;;3.44;100.00;97538.59;5066343;28;20029;-74
2023/01/16 11:40:05;;;;;;;3.75;2.40;;;;;;;3.48;100.00;97532.47;5052251;28;20079;-75
2023/01/16 11:48:22;;;;;;;3.13;2.13;;;;;;;3.64;100.00;97519.38;5051891;28;20043;-74
2023/01/16 11:50:53;;;;;;;4.45;2.15;;;;;;;3.70;100.00;97519.28;5053174;28;20025;-74
2023/01/16 11:53:19;;;;;;;3.10;2.45;;;;;;;3.76;100.00;97513.16;5053468;28;20031;-75
2023/01/16 11:56:28;;;;;;;2.10;1.83;;;;;;;3.81;100.00;97503.59;5053486;28;20021;-75
2023/01/16 11:59:18;;;;;;;5.22;2.22;;;;;;;3.86;100.00;97502.66;5036592;28;20042;-76
2023/01/16 12:02:19;;;;;;;2.50;2.05;;;;;;;3.90;100.00;97498.28;5038431;28;20424;-75
2023/01/16 12:08:25;;;;;;;3.35;2.28;;;;;;;3.99;100.00;97498.19;5047501;28;20091;-75
2023/01/16 12:11:09;;;;;;;2.20;1.20;;;;;;;4.04;100.00;97487.72;5065826;28;20037;-75
2023/01/16 12:16:38;;;;;;;2.20;1.17;;;;;;;4.16;100.00;97490.16;5050481;28;20507;-75
2023/01/16 12:19:22;;;;;;;2.35;1.17;;;;;;;4.15;100.00;97471.97;5053013;28;20029;-75
2023/01/16 12:21:56;;;;;;;3.77;1.27;;;;;;;4.24;100.00;97479.69;5046089;28;20032;-75
2023/01/16 12:24:40;;;;;;;1.38;1.10;;;;;;;4.30;100.00;97460.50;5048932;28;20441;-75
2023/01/16 12:27:32;;;;;;;1.38;1.15;;;;;;;4.43;100.00;97466.44;5046308;28;20028;-76
2023/01/16 12:30:22;;;;;;;3.22;1.00;;;;;;;4.48;100.00;97468.09;5058643;28;20032;-76
2023/01/16 12:33:17;;;;;;;3.22;1.08;;;;;;;4.50;100.00;97468.06;5050649;28;20052;-75
2023/01/16 12:35:51;;;;;;;3.03;1.30;;;;;;;4.52;100.00;97466.31;5051577;28;20025;-74
2023/01/16 12:38:28;;;;;;;6.43;1.13;;;;;;;4.46;100.00;97459.44;5038516;28;20047;-75
2023/01/16 12:44:37;;;;;;;2.22;0.93;;;;;;;4.43;100.00;97462.06;5038663;28;20033;-76
2023/01/16 12:47:18;;;;;;;2.90;1.55;;;;;;;4.39;100.00;97450.00;5052325;28;20024;-75
2023/01/16 12:50:03;;;;;;;1.95;0.90;;;;;;;4.38;100.00;97449.13;5051240;28;20127;-75